Bellburn, West Virginia
Current Conditions -  °F | °C
As of 5:55 PM on Thursday 23 Oct 2014 (Local Time) from KLWB Reporting Station
Overcast Overcast  
Wind Chill: 47°   Ceiling: 1800
Heat Index: 49°   Visibility: 10mi
Dew Point: 40°   Wind: 5mph
Humidity: 72%   Direction: 320°NW
Pressure: 30.1"   Gusts: NA
Location:  38.0444°N, 80.7233°W
Report Text: KLWB 232155Z AUTO 32004KT 10SM OVC018 09/05 A3010 RMK AO2 T00930045
Loading
Personal Weather Stations






























Interactive Weather Map
Tropical Storm Tracking
New forecast layout! Learn more

10-Day Weather Forecast

Advertisements
Track Severe Weather on mobile